createdAt,value
2023-03-04T00:00:52.247Z,71.02
2023-03-04T00:03:21.785Z,71.15
2023-03-04T00:05:51.346Z,71.01
2023-03-04T00:08:21.091Z,70.94
2023-03-04T00:10:53.978Z,70.73
2023-03-04T00:13:24.308Z,70.89
2023-03-04T00:15:54.160Z,70.97
2023-03-04T00:18:23.839Z,70.81
2023-03-04T00:20:53.298Z,70.82
2023-03-04T00:23:22.890Z,70.92
2023-03-04T00:25:54.932Z,70.76
2023-03-04T00:28:24.332Z,70.83
2023-03-04T00:30:53.911Z,70.85
2023-03-04T00:33:23.322Z,71.14
2023-03-04T00:35:53.231Z,71.03
2023-03-04T00:38:22.917Z,70.85
2023-03-04T00:40:55.397Z,71.32
2023-03-04T00:43:25.326Z,70.85
2023-03-04T00:45:54.965Z,71.02
2023-03-04T00:48:24.421Z,71.05
2023-03-04T00:50:54.353Z,71.08
2023-03-04T00:53:24.114Z,71.10
2023-03-04T00:55:56.094Z,70.68
2023-03-04T00:58:25.541Z,70.90
2023-03-04T01:00:55.005Z,70.91
2023-03-04T01:03:24.583Z,70.51
2023-03-04T01:05:53.979Z,70.69
2023-03-04T01:08:23.387Z,70.60
2023-03-04T01:10:52.853Z,71.06
2023-03-04T01:13:24.870Z,70.87
2023-03-04T01:15:57.729Z,70.61
2023-03-04T01:18:27.895Z,70.76
2023-03-04T01:20:57.470Z,71.14
2023-03-04T01:23:26.942Z,71.12
2023-03-04T01:25:56.638Z,71.11
2023-03-04T01:28:28.654Z,70.87
2023-03-04T01:30:58.136Z,70.97
2023-03-04T01:33:27.636Z,70.97
2023-03-04T01:35:57.167Z,71.08
2023-03-04T01:38:28.209Z,71.28
2023-03-04T01:40:57.617Z,71.30
2023-03-04T01:43:31.128Z,71.14
2023-03-04T01:46:02.350Z,71.17
2023-03-04T01:48:36.614Z,70.98
2023-03-04T01:51:06.665Z,71.03
2023-03-04T01:53:36.472Z,71.25
2023-03-04T01:56:17.393Z,71.27
2023-03-04T01:59:10.055Z,71.34
2023-03-04T02:01:40.560Z,71.35
2023-03-04T02:04:10.711Z,71.20
2023-03-04T02:06:42.141Z,71.18
2023-03-04T02:09:12.664Z,71.38
2023-03-04T02:11:42.864Z,71.27
2023-03-04T02:14:16.199Z,71.61
2023-03-04T02:16:45.669Z,71.49
2023-03-04T02:19:19.606Z,71.48
2023-03-04T02:21:49.179Z,71.40
2023-03-04T02:24:23.382Z,71.81
2023-03-04T02:26:55.735Z,71.65
2023-03-04T02:29:25.421Z,71.51
2023-03-04T02:31:56.770Z,71.54
2023-03-04T02:34:28.597Z,71.52
2023-03-04T02:36:58.947Z,71.87
2023-03-04T02:39:34.348Z,71.80
2023-03-04T02:42:07.007Z,71.83
2023-03-04T02:44:40.150Z,71.51
2023-03-04T02:47:12.320Z,71.67
2023-03-04T02:49:44.056Z,72.08
2023-03-04T02:52:17.245Z,71.88
2023-03-04T02:54:46.725Z,72.01
2023-03-04T02:57:18.943Z,71.85
2023-03-04T02:59:52.596Z,71.87
2023-03-04T03:02:25.204Z,72.24
2023-03-04T03:04:54.648Z,72.26
2023-03-04T03:07:24.252Z,72.11
2023-03-04T03:09:53.679Z,72.33
2023-03-04T03:12:25.684Z,72.33
2023-03-04T03:14:55.284Z,72.46
2023-03-04T03:17:26.299Z,72.36
2023-03-04T03:19:55.736Z,72.48
2023-03-04T03:22:25.180Z,72.68
2023-03-04T03:24:54.645Z,72.37
2023-03-04T03:27:26.714Z,72.28
2023-03-04T03:29:56.567Z,72.55
2023-03-04T03:32:26.130Z,72.88
2023-03-04T03:34:55.573Z,72.21
2023-03-04T03:37:25.127Z,72.78
2023-03-04T03:39:54.547Z,73.05
2023-03-04T03:42:26.506Z,73.02
2023-03-04T03:44:56.057Z,73.38
2023-03-04T03:47:25.785Z,73.40
2023-03-04T03:49:55.177Z,73.52
2023-03-04T03:52:24.591Z,73.03
2023-03-04T03:54:54.007Z,72.97
2023-03-04T03:57:26.276Z,73.08
2023-03-04T03:59:55.773Z,73.42
2023-03-04T04:02:25.626Z,73.21
2023-03-04T04:04:55.177Z,73.61
2023-03-04T04:07:24.626Z,73.70
2023-03-04T04:09:54.025Z,73.73
2023-03-04T04:12:26.437Z,73.26
2023-03-04T04:14:55.839Z,73.55
2023-03-04T04:17:25.332Z,73.58
2023-03-04T04:19:54.783Z,73.92
2023-03-04T04:22:24.495Z,74.02
2023-03-04T04:24:54.022Z,74.13
2023-03-04T04:27:26.041Z,74.37
2023-03-04T04:29:55.460Z,75.17
2023-03-04T04:32:24.924Z,76.09
2023-03-04T04:34:54.374Z,77.52
2023-03-04T04:37:23.760Z,77.90
2023-03-04T04:39:55.415Z,78.49
2023-03-04T04:42:27.438Z,79.00
2023-03-04T04:44:57.789Z,78.43
2023-03-04T04:47:27.309Z,79.32
2023-03-04T04:49:56.732Z,79.05
2023-03-04T04:52:26.135Z,78.97
2023-03-04T04:54:55.532Z,79.44
2023-03-04T04:57:27.607Z,79.74
2023-03-04T04:59:57.010Z,79.38
2023-03-04T05:02:26.424Z,79.30
2023-03-04T05:04:55.820Z,78.90
2023-03-04T05:07:25.347Z,79.09
2023-03-04T05:09:54.875Z,79.18
2023-03-04T05:12:26.835Z,79.21
2023-03-04T05:14:56.206Z,79.11
2023-03-04T05:17:25.608Z,79.21
2023-03-04T05:19:55.009Z,79.28
2023-03-04T05:22:24.398Z,78.95
2023-03-04T05:24:53.732Z,78.92
2023-03-04T05:27:23.116Z,79.07
2023-03-04T05:29:55.684Z,79.12
2023-03-04T05:32:25.152Z,79.26
2023-03-04T05:34:54.597Z,79.16
2023-03-04T05:37:24.015Z,78.96
2023-03-04T05:39:53.396Z,79.36
2023-03-04T05:42:22.839Z,79.17
2023-03-04T05:44:54.871Z,79.55
2023-03-04T05:47:24.275Z,79.59
2023-03-04T05:49:54.565Z,79.78
2023-03-04T05:52:23.944Z,79.64
2023-03-04T05:54:53.331Z,79.87
2023-03-04T05:57:22.755Z,80.02
2023-03-04T05:59:54.775Z,79.63
2023-03-04T06:02:24.213Z,79.51
2023-03-04T06:04:53.770Z,79.17
2023-03-04T06:07:23.297Z,79.26
2023-03-04T06:09:52.849Z,79.26
2023-03-04T06:12:22.285Z,78.83
2023-03-04T06:14:51.790Z,78.79
2023-03-04T06:17:24.076Z,78.92
2023-03-04T06:19:53.550Z,79.64
2023-03-04T06:22:22.999Z,79.50
2023-03-04T06:24:52.516Z,79.47
2023-03-04T06:27:21.915Z,80.20
2023-03-04T06:29:51.364Z,80.67
2023-03-04T06:32:23.584Z,80.72
2023-03-04T06:34:53.065Z,81.00
2023-03-04T06:37:22.529Z,80.52
2023-03-04T06:39:51.979Z,79.65
2023-03-04T06:42:21.477Z,79.36
2023-03-04T06:44:51.988Z,79.27
2023-03-04T06:47:24.308Z,79.04
2023-03-04T06:49:53.908Z,79.45
2023-03-04T06:52:23.423Z,79.22
2023-03-04T06:54:52.902Z,79.32
2023-03-04T06:57:22.333Z,79.52
2023-03-04T06:59:51.794Z,80.07
2023-03-04T07:02:24.081Z,80.31
2023-03-04T07:04:53.852Z,80.57
2023-03-04T07:07:23.524Z,80.31
2023-03-04T07:09:52.957Z,80.26
2023-03-04T07:12:22.413Z,79.87
2023-03-04T07:14:51.830Z,79.48
2023-03-04T07:17:23.938Z,79.65
2023-03-04T07:19:53.344Z,79.57
2023-03-04T07:22:22.808Z,79.85
2023-03-04T07:24:52.318Z,81.20
2023-03-04T07:27:21.904Z,81.44
2023-03-04T07:29:51.400Z,82.25
2023-03-04T07:32:20.939Z,82.26
2023-03-04T07:34:53.733Z,82.21
2023-03-04T07:37:23.159Z,81.84
2023-03-04T07:39:52.574Z,82.22
2023-03-04T07:42:21.968Z,81.33
2023-03-04T07:44:59.700Z,81.60
2023-03-04T07:47:29.166Z,81.48
2023-03-04T07:50:01.188Z,81.28
2023-03-04T07:52:30.705Z,81.07
2023-03-04T07:55:00.249Z,80.88
2023-03-04T07:57:31.733Z,81.64
2023-03-04T08:00:01.158Z,81.67
2023-03-04T08:02:30.744Z,81.81
2023-03-04T08:05:02.761Z,82.05
2023-03-04T08:07:32.342Z,82.22
2023-03-04T08:10:01.799Z,82.97
2023-03-04T08:12:31.304Z,82.86
2023-03-04T08:15:00.732Z,83.45
2023-03-04T08:17:31.270Z,83.24
2023-03-04T08:20:03.702Z,83.04
2023-03-04T08:22:33.270Z,83.34
2023-03-04T08:25:02.716Z,83.74
2023-03-04T08:27:32.215Z,84.28
2023-03-04T08:30:01.899Z,84.33
2023-03-04T08:32:31.594Z,83.97
2023-03-04T08:35:03.660Z,83.63
2023-03-04T08:37:33.099Z,84.25
2023-03-04T08:40:02.521Z,84.04
2023-03-04T08:42:32.035Z,84.71
2023-03-04T08:45:01.500Z,84.99
2023-03-04T08:47:30.935Z,85.03
2023-03-04T08:50:02.901Z,84.79
2023-03-04T08:52:32.672Z,85.18
2023-03-04T08:55:02.233Z,84.80
2023-03-04T08:57:31.723Z,84.97
2023-03-04T09:00:01.100Z,85.12
2023-03-04T09:02:30.488Z,85.37
2023-03-04T09:04:59.916Z,85.92
2023-03-04T09:07:31.917Z,85.96
2023-03-04T09:10:01.377Z,85.81
2023-03-04T09:12:31.366Z,85.61
2023-03-04T09:15:10.629Z,83.99
2023-03-04T09:17:41.820Z,83.00
2023-03-04T09:20:14.702Z,82.04
2023-03-04T09:22:46.775Z,82.03
2023-03-04T09:25:17.907Z,80.88
2023-03-04T09:27:47.446Z,80.85
2023-03-04T09:30:17.364Z,80.94
2023-03-04T09:32:46.924Z,81.21
2023-03-04T09:35:16.379Z,82.25
2023-03-04T09:37:49.795Z,82.47
2023-03-04T09:40:23.391Z,82.80
2023-03-04T09:42:55.996Z,82.73
2023-03-04T09:45:29.906Z,82.83
2023-03-04T09:48:00.802Z,81.41
2023-03-04T09:50:36.360Z,82.02
2023-03-04T09:53:23.717Z,81.50
2023-03-04T09:55:55.233Z,82.04
2023-03-04T09:58:37.087Z,81.37
2023-03-04T10:01:15.958Z,81.70
2023-03-04T10:03:49.431Z,81.85
2023-03-04T10:06:24.522Z,81.25
2023-03-04T10:09:15.183Z,80.90
2023-03-04T10:11:48.560Z,80.13
2023-03-04T10:14:38.025Z,79.81
2023-03-04T10:17:15.435Z,79.09
2023-03-04T10:20:01.281Z,78.55
2023-03-04T10:22:38.469Z,78.71
2023-03-04T10:25:29.355Z,78.10
2023-03-04T10:28:10.691Z,77.57
2023-03-04T10:38:29.522Z,77.19
2023-03-04T10:48:50.943Z,69.48
2023-03-04T10:51:26.420Z,68.93
2023-03-04T10:54:01.748Z,68.43
2023-03-04T10:57:17.191Z,68.77
2023-03-04T10:59:53.844Z,67.74
2023-03-04T11:02:29.916Z,66.99
2023-03-04T11:05:21.593Z,66.16
2023-03-04T11:07:56.737Z,65.49
2023-03-04T11:10:28.731Z,64.44
2023-03-04T11:13:04.533Z,66.69
2023-03-04T11:15:51.223Z,67.49
2023-03-04T11:18:27.310Z,71.38
2023-03-04T11:20:58.187Z,73.41
2023-03-04T11:23:39.866Z,72.65
2023-03-04T11:26:15.438Z,71.83
2023-03-04T11:28:52.450Z,70.98
2023-03-04T11:31:26.265Z,70.33
2023-03-04T11:34:00.712Z,68.58
2023-03-04T11:36:38.377Z,67.27
2023-03-04T11:39:16.290Z,65.92
2023-03-04T11:42:01.118Z,63.92
2023-03-04T11:44:33.563Z,63.51
2023-03-04T11:47:25.492Z,64.27
2023-03-04T11:50:16.460Z,62.60
2023-03-04T11:53:07.486Z,63.17
2023-03-04T11:55:43.921Z,62.85
2023-03-04T11:58:38.777Z,64.65
2023-03-04T12:01:13.130Z,64.81
2023-03-04T12:03:59.996Z,64.29
2023-03-04T12:06:38.533Z,63.49
2023-03-04T12:09:26.143Z,61.96
2023-03-04T12:12:03.941Z,61.88
2023-03-04T12:14:44.212Z,61.65
2023-03-04T12:17:33.785Z,61.21
2023-03-04T12:20:19.413Z,60.38
2023-03-04T12:22:54.086Z,60.29
2023-03-04T12:25:53.323Z,59.95
2023-03-04T12:28:33.917Z,58.70
2023-03-04T12:31:24.266Z,57.48
2023-03-04T12:34:17.205Z,57.53
2023-03-04T12:36:53.982Z,56.83
2023-03-04T12:39:31.910Z,57.66
2023-03-04T12:42:13.279Z,56.28
2023-03-04T12:44:49.439Z,57.08
2023-03-04T12:47:31.775Z,58.58
2023-03-04T12:50:24.968Z,58.55
2023-03-04T12:52:59.671Z,60.46
2023-03-04T12:55:39.069Z,62.44
2023-03-04T12:58:16.707Z,63.15
2023-03-04T13:00:58.522Z,63.90
2023-03-04T13:03:39.639Z,64.53
2023-03-04T13:06:22.465Z,63.46
2023-03-04T13:09:01.693Z,65.48
2023-03-04T13:11:58.525Z,68.19
2023-03-04T13:14:33.238Z,67.78
2023-03-04T13:17:04.928Z,66.05
2023-03-04T13:19:53.797Z,64.63
2023-03-04T13:22:44.602Z,62.34
2023-03-04T13:25:33.936Z,61.21
2023-03-04T13:28:21.301Z,58.56
2023-03-04T13:31:26.621Z,56.99
2023-03-04T13:34:00.142Z,59.99
2023-03-04T13:36:33.911Z,61.93
2023-03-04T13:39:24.467Z,58.46
2023-03-04T13:41:54.569Z,49.57
2023-03-04T13:45:01.313Z,56.86
2023-03-04T13:47:43.192Z,58.05
2023-03-04T13:50:37.679Z,58.31
2023-03-04T13:53:32.795Z,59.40
2023-03-04T13:56:11.918Z,59.46
2023-03-04T13:58:42.416Z,59.44
2023-03-04T14:01:27.202Z,59.58
2023-03-04T14:03:57.110Z,60.05
2023-03-04T14:06:29.337Z,61.20
2023-03-04T14:09:00.671Z,61.74
2023-03-04T14:11:38.788Z,61.66
2023-03-04T14:14:09.965Z,61.77
2023-03-04T14:16:43.157Z,61.80
2023-03-04T14:19:19.603Z,61.08
2023-03-04T14:21:49.965Z,60.84
2023-03-04T14:24:21.347Z,60.34
2023-03-04T14:27:06.388Z,60.83
2023-03-04T14:29:35.850Z,61.27
2023-03-04T14:32:08.157Z,62.58
2023-03-04T14:34:40.911Z,63.47
2023-03-04T14:37:24.371Z,64.11
2023-03-04T14:39:58.962Z,64.87
2023-03-04T14:42:41.821Z,64.89
2023-03-04T14:45:16.533Z,65.74
2023-03-04T14:47:48.649Z,66.44
2023-03-04T14:50:20.738Z,64.86
2023-03-04T14:52:51.813Z,63.10
2023-03-04T14:55:27.455Z,62.68
2023-03-04T14:58:10.175Z,62.05
2023-03-04T15:00:41.721Z,63.54
2023-03-04T15:03:23.747Z,64.47
2023-03-04T15:05:55.792Z,63.49
2023-03-04T15:08:27.860Z,63.70
2023-03-04T15:10:59.752Z,63.41
2023-03-04T15:13:43.434Z,63.87
2023-03-04T15:16:15.069Z,64.61
2023-03-04T15:18:59.485Z,63.63
2023-03-04T15:21:40.204Z,63.53
2023-03-04T15:24:13.605Z,63.50
2023-03-04T15:26:46.043Z,63.92
2023-03-04T15:29:20.638Z,63.99
2023-03-04T15:31:51.868Z,64.40
2023-03-04T15:34:23.558Z,65.35
2023-03-04T15:36:53.919Z,65.08
2023-03-04T15:39:24.252Z,65.71
2023-03-04T15:41:53.649Z,65.97
2023-03-04T15:44:25.559Z,66.72
2023-03-04T15:46:54.951Z,66.80
2023-03-04T15:49:24.317Z,66.80
2023-03-04T15:51:53.725Z,66.63
2023-03-04T15:54:26.138Z,65.94
2023-03-04T15:56:55.686Z,65.78
2023-03-04T15:59:27.957Z,65.64
2023-03-04T16:01:57.321Z,65.90
2023-03-04T16:04:26.759Z,65.78
2023-03-04T16:06:59.305Z,66.03
2023-03-04T16:09:28.747Z,66.04
2023-03-04T16:12:01.871Z,65.61
2023-03-04T16:14:33.887Z,65.75
2023-03-04T16:17:03.362Z,65.90
2023-03-04T16:19:32.796Z,66.68
2023-03-04T16:22:02.344Z,66.68
2023-03-04T16:24:35.632Z,66.86
2023-03-04T16:27:06.340Z,67.32
2023-03-04T16:29:38.329Z,67.21
2023-03-04T16:32:10.617Z,66.75
2023-03-04T16:34:40.329Z,66.48
2023-03-04T16:37:15.143Z,66.00
2023-03-04T16:39:46.422Z,65.47
2023-03-04T16:42:19.058Z,65.31
2023-03-04T16:44:51.299Z,65.69
2023-03-04T16:47:20.803Z,65.63
2023-03-04T16:49:50.882Z,65.64
2023-03-04T16:52:26.537Z,65.86
2023-03-04T16:54:56.241Z,66.37
2023-03-04T16:57:28.410Z,66.41
2023-03-04T17:00:01.491Z,66.25
2023-03-04T17:02:32.469Z,66.62
2023-03-04T17:05:01.863Z,66.20
2023-03-04T17:07:31.191Z,65.69
2023-03-04T17:10:00.658Z,65.51
2023-03-04T17:12:30.752Z,65.04
2023-03-04T17:15:04.197Z,64.84
2023-03-04T17:17:34.007Z,64.75
2023-03-04T17:20:06.032Z,64.68
2023-03-04T17:22:35.522Z,64.80
2023-03-04T17:25:05.456Z,64.66
2023-03-04T17:27:35.001Z,64.66
2023-03-04T17:30:10.480Z,65.04
2023-03-04T17:32:41.192Z,65.40
2023-03-04T17:35:12.124Z,65.43
2023-03-04T17:37:41.900Z,65.85
2023-03-04T17:40:15.668Z,66.26
2023-03-04T17:42:46.047Z,66.48
2023-03-04T17:45:18.027Z,66.62
2023-03-04T17:47:47.405Z,66.88
2023-03-04T17:50:16.892Z,67.13
2023-03-04T17:52:46.405Z,67.65
2023-03-04T17:55:15.851Z,67.80
2023-03-04T17:57:45.257Z,68.24
2023-03-04T18:00:18.726Z,69.08
2023-03-04T18:02:48.156Z,69.19
2023-03-04T18:05:17.509Z,69.55
2023-03-04T18:07:46.878Z,69.59
2023-03-04T18:10:16.314Z,70.06
2023-03-04T18:12:47.427Z,69.99
2023-03-04T18:15:19.665Z,70.14
2023-03-04T18:17:49.133Z,70.20
2023-03-04T18:20:18.715Z,70.42
2023-03-04T18:22:48.419Z,70.71
2023-03-04T18:25:17.865Z,70.79
2023-03-04T18:27:47.322Z,70.86
2023-03-04T18:30:22.959Z,70.70
2023-03-04T18:32:52.694Z,70.87
2023-03-04T18:35:22.257Z,70.86
2023-03-04T18:37:52.222Z,71.10
2023-03-04T18:40:21.854Z,71.18
2023-03-04T18:42:51.291Z,71.49
2023-03-04T18:45:24.084Z,71.89
2023-03-04T18:47:53.975Z,72.19
2023-03-04T18:50:24.130Z,72.15
2023-03-04T18:52:54.729Z,72.88
2023-03-04T18:55:26.736Z,72.85
2023-03-04T18:57:59.273Z,73.20
2023-03-04T19:00:31.946Z,73.67
2023-03-04T19:03:07.473Z,73.90
2023-03-04T19:05:37.199Z,74.06
2023-03-04T19:08:07.150Z,74.32
2023-03-04T19:10:36.808Z,74.87
2023-03-04T19:13:06.668Z,74.43
2023-03-04T19:15:38.631Z,74.37
2023-03-04T19:18:08.139Z,74.32
2023-03-04T19:20:37.570Z,73.97
2023-03-04T19:23:10.017Z,74.23
2023-03-04T19:25:39.903Z,74.25
2023-03-04T19:28:10.037Z,74.57
2023-03-04T19:30:43.555Z,74.48
2023-03-04T19:33:13.013Z,74.32
2023-03-04T19:35:47.604Z,74.08
2023-03-04T19:38:17.071Z,73.96
2023-03-04T19:40:46.922Z,73.78
2023-03-04T19:43:16.881Z,73.51
2023-03-04T19:45:55.088Z,73.77
2023-03-04T19:48:25.536Z,73.50
2023-03-04T19:50:54.908Z,73.71
2023-03-04T19:53:24.266Z,73.60
2023-03-04T19:55:54.068Z,73.11
2023-03-04T19:58:23.961Z,73.39
2023-03-04T20:00:56.274Z,73.34
2023-03-04T20:03:26.358Z,73.47
2023-03-04T20:06:04.903Z,73.58
2023-03-04T20:08:35.953Z,73.28
2023-03-04T20:11:09.956Z,73.47
2023-03-04T20:13:39.544Z,73.69
2023-03-04T20:16:14.870Z,73.73
2023-03-04T20:18:44.648Z,73.97
2023-03-04T20:21:14.767Z,74.07
2023-03-04T20:23:44.204Z,74.06
2023-03-04T20:26:14.033Z,74.04
2023-03-04T20:28:52.375Z,74.35
2023-03-04T20:31:26.184Z,74.39
2023-03-04T20:33:57.610Z,74.57
2023-03-04T20:36:29.404Z,74.78
2023-03-04T20:39:05.399Z,75.11
2023-03-04T20:41:40.093Z,75.00
2023-03-04T20:44:09.639Z,75.64
2023-03-04T20:46:43.286Z,75.57
2023-03-04T20:49:14.961Z,75.66
2023-03-04T20:51:44.631Z,76.04
2023-03-04T20:54:14.622Z,76.15
2023-03-04T20:56:44.455Z,75.61
2023-03-04T20:59:15.230Z,75.62
2023-03-04T21:01:48.508Z,75.85
2023-03-04T21:04:18.518Z,75.55
2023-03-04T21:06:50.674Z,75.43
2023-03-04T21:09:22.607Z,75.14
2023-03-04T21:11:52.586Z,75.50
2023-03-04T21:14:24.856Z,75.18
2023-03-04T21:16:58.922Z,75.23
2023-03-04T21:19:30.010Z,75.29
2023-03-04T21:22:00.990Z,75.29
2023-03-04T21:24:32.368Z,75.34
2023-03-04T21:27:02.066Z,75.49
2023-03-04T21:29:31.436Z,75.19
2023-03-04T21:32:22.364Z,75.42
2023-03-04T21:34:53.379Z,75.41
2023-03-04T21:37:23.714Z,75.31
2023-03-04T21:39:53.199Z,75.41
2023-03-04T21:42:22.660Z,75.16
2023-03-04T21:44:52.232Z,75.23
2023-03-04T21:47:24.987Z,75.11
2023-03-04T21:49:54.253Z,74.64
2023-03-04T21:52:24.532Z,74.98
2023-03-04T21:54:55.966Z,75.16
2023-03-04T21:57:25.608Z,75.84
2023-03-04T21:59:55.041Z,76.09
2023-03-04T22:02:27.137Z,75.96
2023-03-04T22:04:56.552Z,76.67
2023-03-04T22:07:25.993Z,76.92
2023-03-04T22:09:56.895Z,76.83
2023-03-04T22:12:26.335Z,76.58
2023-03-04T22:14:55.714Z,77.10
2023-03-04T22:17:27.766Z,76.74
2023-03-04T22:19:57.697Z,76.61
2023-03-04T22:22:28.032Z,76.83
2023-03-04T22:24:59.610Z,76.62
2023-03-04T22:27:30.170Z,76.72
2023-03-04T22:29:59.581Z,76.54
2023-03-04T22:32:31.586Z,77.03
2023-03-04T22:35:00.943Z,77.16
2023-03-04T22:37:30.364Z,78.41
2023-03-04T22:40:00.030Z,79.13
2023-03-04T22:42:29.820Z,79.91
2023-03-04T22:44:59.558Z,80.57
2023-03-04T22:47:31.766Z,80.79
2023-03-04T22:50:01.107Z,81.55
2023-03-04T22:52:30.486Z,81.50
2023-03-04T22:54:59.895Z,81.54
2023-03-04T22:57:29.329Z,81.68
2023-03-04T22:59:58.722Z,81.57
2023-03-04T23:02:30.762Z,80.96
2023-03-04T23:05:00.295Z,80.71
2023-03-04T23:07:29.663Z,80.93
2023-03-04T23:09:59.648Z,80.99
2023-03-04T23:12:28.975Z,81.00
2023-03-04T23:14:58.376Z,80.47
2023-03-04T23:17:27.889Z,80.86
2023-03-04T23:19:59.827Z,80.80
2023-03-04T23:22:29.255Z,80.67
2023-03-04T23:24:59.203Z,80.78
2023-03-04T23:27:28.845Z,81.19
2023-03-04T23:29:58.259Z,80.92
2023-03-04T23:32:27.744Z,80.53
2023-03-04T23:34:59.782Z,80.41
2023-03-04T23:37:29.167Z,80.94
2023-03-04T23:39:58.562Z,80.69
2023-03-04T23:42:27.971Z,81.02
2023-03-04T23:44:57.576Z,80.75
2023-03-04T23:47:26.978Z,80.53
2023-03-04T23:49:56.535Z,80.60
2023-03-04T23:52:28.773Z,80.48
2023-03-04T23:54:58.291Z,80.64
2023-03-04T23:57:27.821Z,80.45
2023-03-04T23:59:57.251Z,80.40
